createdAt,value
2018-09-18T00:00:27.166Z,13.40
2018-09-18T00:02:55.130Z,13.40
2018-09-18T00:05:22.895Z,13.40
2018-09-18T00:07:50.772Z,13.40
2018-09-18T00:10:18.624Z,13.40
2018-09-18T00:12:46.366Z,13.30
2018-09-18T00:15:14.138Z,13.30
2018-09-18T00:17:41.965Z,13.30
2018-09-18T00:20:09.722Z,13.30
2018-09-18T00:22:37.520Z,13.30
2018-09-18T00:25:05.295Z,13.30
2018-09-18T00:27:33.266Z,13.20
2018-09-18T00:30:01.175Z,13.20
2018-09-18T00:32:28.947Z,13.20
2018-09-18T00:34:56.706Z,13.10
2018-09-18T00:37:24.436Z,13.10
2018-09-18T00:39:52.338Z,13.00
2018-09-18T00:42:20.159Z,12.90
2018-09-18T00:44:48.389Z,13.00
2018-09-18T00:47:16.196Z,12.90
2018-09-18T00:49:44.069Z,12.80
2018-09-18T00:52:11.875Z,12.80
2018-09-18T00:54:39.721Z,12.80
2018-09-18T00:57:07.471Z,12.70
2018-09-18T00:59:35.227Z,12.60
2018-09-18T01:02:03.047Z,12.50
2018-09-18T01:04:30.951Z,12.50
2018-09-18T01:06:58.855Z,12.50
2018-09-18T01:09:26.696Z,12.50
2018-09-18T01:11:54.486Z,12.60
2018-09-18T01:14:22.326Z,12.60
2018-09-18T01:16:50.033Z,12.70
2018-09-18T01:19:17.844Z,12.70
2018-09-18T01:21:45.579Z,12.70
2018-09-18T01:24:13.534Z,12.60
2018-09-18T01:26:41.276Z,12.60
2018-09-18T01:29:09.078Z,12.60
2018-09-18T01:31:36.966Z,12.60
2018-09-18T01:34:04.862Z,12.70
2018-09-18T01:36:32.670Z,12.70
2018-09-18T01:39:00.391Z,12.70
2018-09-18T01:41:28.275Z,12.70
2018-09-18T01:43:56.029Z,12.70
2018-09-18T01:46:23.765Z,12.70
2018-09-18T01:48:51.709Z,12.70
2018-09-18T01:51:19.644Z,12.70
2018-09-18T01:53:47.390Z,12.80
2018-09-18T01:56:15.338Z,12.80
2018-09-18T01:58:43.086Z,12.80
2018-09-18T02:01:10.897Z,12.80
2018-09-18T02:03:38.843Z,12.80
2018-09-18T02:06:06.589Z,12.70
2018-09-18T02:08:34.420Z,12.80
2018-09-18T02:11:02.222Z,12.70
2018-09-18T02:13:30.049Z,12.70
2018-09-18T02:15:58.180Z,12.70
2018-09-18T02:18:25.949Z,12.80
2018-09-18T02:20:53.700Z,12.80
2018-09-18T02:23:21.449Z,12.80
2018-09-18T02:25:49.260Z,12.70
2018-09-18T02:28:17.187Z,12.70
2018-09-18T02:30:45.146Z,12.70
2018-09-18T02:33:13.140Z,12.60
2018-09-18T02:35:40.912Z,12.60
2018-09-18T02:38:08.758Z,12.50
2018-09-18T02:40:36.626Z,12.40
2018-09-18T02:43:04.355Z,12.40
2018-09-18T02:45:32.167Z,12.40
2018-09-18T02:47:59.898Z,12.40
2018-09-18T02:50:27.687Z,12.30
2018-09-18T02:52:55.478Z,12.30
2018-09-18T02:55:23.190Z,12.30
2018-09-18T02:57:51.034Z,12.20
2018-09-18T03:00:18.811Z,12.20
2018-09-18T03:02:46.759Z,12.20
2018-09-18T03:05:14.495Z,12.20
2018-09-18T03:07:42.506Z,12.20
2018-09-18T03:10:10.502Z,12.10
2018-09-18T03:12:38.285Z,12.00
2018-09-18T03:15:06.170Z,12.10
2018-09-18T03:17:33.910Z,12.00
2018-09-18T03:20:01.754Z,12.00
2018-09-18T03:22:29.764Z,12.00
2018-09-18T03:24:57.547Z,11.90
2018-09-18T03:29:52.789Z,11.70
2018-09-18T03:32:20.695Z,11.70
2018-09-18T03:34:48.528Z,11.80
2018-09-18T03:37:16.542Z,11.80
2018-09-18T03:39:44.627Z,11.80
2018-09-18T03:42:12.595Z,11.90
2018-09-18T03:44:40.469Z,11.90
2018-09-18T03:47:08.426Z,11.90
2018-09-18T03:49:36.297Z,11.80
2018-09-18T03:52:04.056Z,11.80
2018-09-18T03:54:31.982Z,11.80
2018-09-18T03:56:59.739Z,11.80
2018-09-18T03:59:27.497Z,11.70
2018-09-18T04:01:55.358Z,11.70
2018-09-18T04:04:23.144Z,11.80
2018-09-18T04:06:51.197Z,11.80
2018-09-18T04:09:19.010Z,11.80
2018-09-18T04:11:46.776Z,11.90
2018-09-18T04:14:14.596Z,11.90
2018-09-18T04:16:42.514Z,11.90
2018-09-18T04:19:10.327Z,11.90
2018-09-18T04:21:42.829Z,11.90
2018-09-18T04:24:10.722Z,12.00
2018-09-18T04:26:39.718Z,11.90
2018-09-18T04:29:08.467Z,11.90
2018-09-18T04:31:36.997Z,11.80
2018-09-18T04:34:04.835Z,11.80
2018-09-18T04:36:32.769Z,11.80
2018-09-18T04:39:01.006Z,11.80
2018-09-18T04:41:28.757Z,11.90
2018-09-18T04:43:56.667Z,12.00
2018-09-18T04:46:24.769Z,12.00
2018-09-18T04:48:52.988Z,12.00
2018-09-18T04:51:20.862Z,12.00
2018-09-18T04:53:48.755Z,12.10
2018-09-18T04:56:16.707Z,12.10
2018-09-18T04:58:44.600Z,12.10
2018-09-18T05:01:12.384Z,12.10
2018-09-18T05:03:40.149Z,12.00
2018-09-18T05:06:07.974Z,12.00
2018-09-18T05:08:35.897Z,12.00
2018-09-18T05:11:03.699Z,12.00
2018-09-18T05:13:31.635Z,12.00
2018-09-18T05:15:59.555Z,12.00
2018-09-18T05:18:27.481Z,12.00
2018-09-18T05:20:55.230Z,12.00
2018-09-18T05:23:23.143Z,12.00
2018-09-18T05:25:51.285Z,11.90
2018-09-18T05:28:19.154Z,11.90
2018-09-18T05:30:47.030Z,11.90
2018-09-18T05:33:14.943Z,11.90
2018-09-18T05:35:43.043Z,12.00
2018-09-18T05:38:10.807Z,12.00
2018-09-18T05:40:38.660Z,12.00
2018-09-18T05:43:06.402Z,12.00
2018-09-18T05:45:34.285Z,12.10
2018-09-18T05:48:02.110Z,12.20
2018-09-18T05:50:29.823Z,12.20
2018-09-18T05:52:57.677Z,12.30
2018-09-18T05:55:25.538Z,12.50
2018-09-18T05:57:53.406Z,12.50
2018-09-18T06:00:21.575Z,12.50
2018-09-18T06:02:49.446Z,12.50
2018-09-18T06:05:17.279Z,12.60
2018-09-18T06:07:45.120Z,12.70
2018-09-18T06:10:13.101Z,12.80
2018-09-18T06:12:41.205Z,13.00
2018-09-18T06:15:08.788Z,13.10
2018-09-18T06:17:36.695Z,13.20
2018-09-18T06:20:04.539Z,13.30
2018-09-18T06:22:32.658Z,13.50
2018-09-18T06:25:00.579Z,13.60
2018-09-18T06:27:28.369Z,13.70
2018-09-18T06:29:56.245Z,13.90
2018-09-18T06:32:24.266Z,14.10
2018-09-18T06:34:52.082Z,14.20
2018-09-18T06:37:19.881Z,14.40
2018-09-18T06:39:48.241Z,14.50
2018-09-18T06:42:16.352Z,14.70
2018-09-18T06:44:44.637Z,14.80
2018-09-18T06:47:12.690Z,15.00
2018-09-18T06:49:40.507Z,15.10
2018-09-18T06:52:09.107Z,15.30
2018-09-18T06:54:37.663Z,15.30
2018-09-18T06:57:06.146Z,15.40
2018-09-18T06:59:34.358Z,15.60
2018-09-18T07:02:02.162Z,15.60
2018-09-18T07:04:30.180Z,15.70
2018-09-18T07:06:57.993Z,15.80
2018-09-18T07:09:25.882Z,15.90
2018-09-18T07:11:53.955Z,16.00
2018-09-18T07:14:21.968Z,16.10
2018-09-18T07:16:49.827Z,16.30
2018-09-18T07:19:18.448Z,16.50
2018-09-18T07:21:46.821Z,16.60
2018-09-18T07:24:14.614Z,16.80
2018-09-18T07:26:42.442Z,16.90
2018-09-18T07:29:10.491Z,17.10
2018-09-18T07:31:38.394Z,17.20
2018-09-18T07:34:06.330Z,17.40
2018-09-18T07:36:34.447Z,17.50
2018-09-18T07:39:02.297Z,17.70
2018-09-18T07:41:30.062Z,17.80
2018-09-18T07:43:57.923Z,18.00
2018-09-18T07:46:25.774Z,18.10
2018-09-18T07:48:57.812Z,18.20
2018-09-18T07:51:25.626Z,18.40
2018-09-18T07:53:53.546Z,18.50
2018-09-18T07:56:21.452Z,18.70
2018-09-18T07:58:49.282Z,18.80
2018-09-18T08:01:17.099Z,19.00
2018-09-18T08:03:45.010Z,19.10
2018-09-18T08:06:12.803Z,19.30
2018-09-18T08:08:40.729Z,19.50
2018-09-18T08:11:08.494Z,19.60
2018-09-18T08:13:36.253Z,19.80
2018-09-18T08:16:04.387Z,19.90
2018-09-18T08:18:32.248Z,20.10
2018-09-18T08:21:00.083Z,20.40
2018-09-18T08:23:27.913Z,20.50
2018-09-18T08:25:55.780Z,20.60
2018-09-18T08:28:23.619Z,20.80
2018-09-18T08:30:51.366Z,20.90
2018-09-18T08:33:19.304Z,21.10
2018-09-18T08:35:47.234Z,21.20
2018-09-18T08:38:15.337Z,21.40
2018-09-18T08:40:43.219Z,21.50
2018-09-18T08:43:10.957Z,21.70
2018-09-18T08:45:38.727Z,21.90
2018-09-18T08:48:06.631Z,22.20
2018-09-18T08:50:34.620Z,22.50
2018-09-18T08:53:02.382Z,22.70
2018-09-18T08:55:30.233Z,22.90
2018-09-18T08:57:58.040Z,23.10
2018-09-18T09:00:26.199Z,23.30
2018-09-18T09:02:54.156Z,23.50
2018-09-18T09:05:22.062Z,23.70
2018-09-18T09:07:50.153Z,23.80
2018-09-18T09:10:17.922Z,23.90
2018-09-18T09:12:46.014Z,24.20
2018-09-18T09:15:13.871Z,24.30
2018-09-18T09:17:41.778Z,24.30
2018-09-18T09:20:09.681Z,24.40
2018-09-18T09:22:37.754Z,24.60
2018-09-18T09:25:05.536Z,24.60
2018-09-18T09:27:33.480Z,24.80
2018-09-18T09:30:01.474Z,24.90
2018-09-18T09:32:29.473Z,25.10
2018-09-18T09:34:57.399Z,25.20
2018-09-18T09:37:25.232Z,25.30
2018-09-18T09:39:53.011Z,25.40
2018-09-18T09:42:21.680Z,25.50
2018-09-18T09:44:49.573Z,25.60
2018-09-18T09:47:17.362Z,25.60
2018-09-18T09:49:45.183Z,25.70
2018-09-18T09:52:12.957Z,25.80
2018-09-18T09:54:40.837Z,25.90
2018-09-18T09:57:08.548Z,26.00
2018-09-18T09:59:36.607Z,26.00
2018-09-18T10:02:09.875Z,26.10
2018-09-18T10:04:37.815Z,26.30
2018-09-18T10:07:05.654Z,26.40
2018-09-18T10:09:33.579Z,26.50
2018-09-18T10:12:01.555Z,26.70
2018-09-18T10:14:29.359Z,26.70
2018-09-18T10:16:57.287Z,26.90
2018-09-18T10:19:25.213Z,26.80
2018-09-18T10:21:53.108Z,26.90
2018-09-18T10:24:20.925Z,27.00
2018-09-18T10:26:48.821Z,27.00
2018-09-18T10:29:16.964Z,27.10
2018-09-18T10:31:44.895Z,27.00
2018-09-18T10:34:12.856Z,27.10
2018-09-18T10:36:40.682Z,27.20
2018-09-18T10:39:10.055Z,27.20
2018-09-18T10:41:38.189Z,27.30
2018-09-18T10:44:05.983Z,27.40
2018-09-18T10:46:33.827Z,27.50
2018-09-18T10:49:01.808Z,27.50
2018-09-18T10:51:30.015Z,27.60
2018-09-18T10:53:58.071Z,27.70
2018-09-18T10:56:25.870Z,27.80
2018-09-18T10:58:53.662Z,27.90
2018-09-18T11:01:21.630Z,27.90
2018-09-18T11:03:49.397Z,28.00
2018-09-18T11:06:17.380Z,28.00
2018-09-18T11:08:45.454Z,28.00
2018-09-18T11:11:13.345Z,28.10
2018-09-18T11:13:41.172Z,28.10
2018-09-18T11:16:09.081Z,28.10
2018-09-18T11:18:37.147Z,28.20
2018-09-18T11:21:05.015Z,28.30
2018-09-18T11:23:33.092Z,28.40
2018-09-18T11:26:00.857Z,28.40
2018-09-18T11:28:28.798Z,28.40
2018-09-18T11:30:56.555Z,28.40
2018-09-18T11:33:24.539Z,28.40
2018-09-18T11:35:52.365Z,28.50
2018-09-18T11:38:20.455Z,28.60
2018-09-18T11:40:48.538Z,28.60
2018-09-18T11:43:16.473Z,28.60
2018-09-18T11:45:44.256Z,28.70
2018-09-18T11:48:12.151Z,28.80
2018-09-18T11:50:40.006Z,28.90
2018-09-18T11:53:07.950Z,28.90
2018-09-18T11:55:35.751Z,28.90
2018-09-18T11:58:03.571Z,29.00
2018-09-18T12:00:31.544Z,29.00
2018-09-18T12:02:59.504Z,29.00
2018-09-18T12:05:27.322Z,28.90
2018-09-18T12:07:55.270Z,28.90
2018-09-18T12:10:23.123Z,29.00
2018-09-18T12:12:51.038Z,29.00
2018-09-18T12:15:19.073Z,29.00
2018-09-18T12:17:47.268Z,29.10
2018-09-18T12:20:15.270Z,29.10
2018-09-18T12:22:43.302Z,29.00
2018-09-18T12:25:11.260Z,29.00
2018-09-18T12:27:39.122Z,29.10
2018-09-18T12:30:07.527Z,29.10
2018-09-18T12:32:35.461Z,29.10
2018-09-18T12:35:03.711Z,29.20
2018-09-18T12:37:31.807Z,29.30
2018-09-18T12:39:59.578Z,29.20
2018-09-18T12:42:27.653Z,29.30
2018-09-18T12:44:55.572Z,29.30
2018-09-18T12:47:23.557Z,29.40
2018-09-18T12:49:51.484Z,29.30
2018-09-18T12:52:19.279Z,29.40
2018-09-18T12:54:47.122Z,29.40
2018-09-18T12:57:14.959Z,29.40
2018-09-18T12:59:42.983Z,29.50
2018-09-18T13:02:10.744Z,29.50
2018-09-18T13:04:38.529Z,29.70
2018-09-18T13:07:06.616Z,29.70
2018-09-18T13:09:34.330Z,29.60
2018-09-18T13:12:02.236Z,29.60
2018-09-18T13:14:30.148Z,29.60
2018-09-18T13:16:57.904Z,29.70
2018-09-18T13:19:25.927Z,29.70
2018-09-18T13:21:53.786Z,29.80
2018-09-18T13:24:21.849Z,29.80
2018-09-18T13:26:49.811Z,29.80
2018-09-18T13:29:17.940Z,30.00
2018-09-18T13:31:45.879Z,29.80
2018-09-18T13:34:13.702Z,29.60
2018-09-18T13:36:41.558Z,29.70
2018-09-18T13:39:09.783Z,29.80
2018-09-18T13:41:37.770Z,29.90
2018-09-18T13:44:05.803Z,29.80
2018-09-18T13:46:33.787Z,29.80
2018-09-18T13:49:01.730Z,29.80
2018-09-18T13:51:29.796Z,29.80
2018-09-18T13:53:57.800Z,29.90
2018-09-18T13:56:25.900Z,30.00
2018-09-18T13:58:53.645Z,30.00
2018-09-18T14:01:21.599Z,30.00
2018-09-18T14:03:49.417Z,30.00
2018-09-18T14:06:17.349Z,30.00
2018-09-18T14:08:45.162Z,30.00
2018-09-18T14:11:13.033Z,29.90
2018-09-18T14:13:40.934Z,29.80
2018-09-18T14:16:09.089Z,29.90
2018-09-18T14:18:37.224Z,29.90
2018-09-18T14:21:05.193Z,29.90
2018-09-18T14:23:33.126Z,29.90
2018-09-18T14:26:01.120Z,30.00
2018-09-18T14:28:29.161Z,29.90
2018-09-18T14:30:56.981Z,30.00
2018-09-18T14:33:24.970Z,30.10
2018-09-18T14:35:52.917Z,30.10
2018-09-18T14:38:21.183Z,30.10
2018-09-18T14:40:48.906Z,30.10
2018-09-18T14:43:17.080Z,30.10
2018-09-18T14:45:45.099Z,30.10
2018-09-18T14:48:13.002Z,30.00
2018-09-18T14:50:40.983Z,30.00
2018-09-18T14:53:08.801Z,29.90
2018-09-18T14:55:36.836Z,29.80
2018-09-18T14:58:04.700Z,29.80
2018-09-18T15:00:32.760Z,29.90
2018-09-18T15:03:00.542Z,29.80
2018-09-18T15:05:28.395Z,29.80
2018-09-18T15:07:56.210Z,29.80
2018-09-18T15:10:24.053Z,29.90
2018-09-18T15:12:51.864Z,29.80
2018-09-18T15:15:19.777Z,29.80
2018-09-18T15:17:47.640Z,29.60
2018-09-18T15:20:15.468Z,29.70
2018-09-18T15:22:43.810Z,29.60
2018-09-18T15:25:11.730Z,29.60
2018-09-18T15:27:39.778Z,29.60
2018-09-18T15:30:07.560Z,29.70
2018-09-18T15:32:36.334Z,29.70
2018-09-18T15:35:04.242Z,29.70
2018-09-18T15:37:32.084Z,29.70
2018-09-18T15:40:00.126Z,29.70
2018-09-18T15:42:28.134Z,29.70
2018-09-18T15:44:56.133Z,29.70
2018-09-18T15:47:24.196Z,29.70
2018-09-18T15:49:51.983Z,29.70
2018-09-18T15:52:19.833Z,29.70
2018-09-18T15:54:47.792Z,29.70
2018-09-18T15:57:15.750Z,29.70
2018-09-18T15:59:43.927Z,29.80
2018-09-18T16:02:11.907Z,29.90
2018-09-18T16:04:39.878Z,29.90
2018-09-18T16:07:07.847Z,29.90
2018-09-18T16:09:35.781Z,29.90
2018-09-18T16:12:03.770Z,29.80
2018-09-18T16:14:31.687Z,29.70
2018-09-18T16:16:59.952Z,29.70
2018-09-18T16:19:27.883Z,29.60
2018-09-18T16:21:55.675Z,29.40
2018-09-18T16:24:23.612Z,29.30
2018-09-18T16:26:51.820Z,29.30
2018-09-18T16:29:19.936Z,29.20
2018-09-18T16:31:47.838Z,29.10
2018-09-18T16:34:15.875Z,29.10
2018-09-18T16:36:43.790Z,28.90
2018-09-18T16:39:11.746Z,28.80
2018-09-18T16:41:39.696Z,28.70
2018-09-18T16:44:07.624Z,28.60
2018-09-18T16:46:35.454Z,28.50
2018-09-18T16:49:04.317Z,28.50
2018-09-18T16:51:32.899Z,28.40
2018-09-18T16:54:01.165Z,28.30
2018-09-18T16:56:29.290Z,28.20
2018-09-18T16:58:57.558Z,28.10
2018-09-18T17:01:25.379Z,28.10
2018-09-18T17:03:53.367Z,28.00
2018-09-18T17:06:21.205Z,28.00
2018-09-18T17:08:49.230Z,27.80
2018-09-18T17:11:17.161Z,27.70
2018-09-18T17:13:45.403Z,27.60
2018-09-18T17:16:13.308Z,27.50
2018-09-18T17:18:41.410Z,27.50
2018-09-18T17:21:09.277Z,27.50
2018-09-18T17:23:37.208Z,27.50
2018-09-18T17:26:05.420Z,27.40
2018-09-18T17:28:33.552Z,27.40
2018-09-18T17:31:01.423Z,27.30
2018-09-18T17:33:29.300Z,27.30
2018-09-18T17:35:57.131Z,27.30
2018-09-18T17:38:25.119Z,27.30
2018-09-18T17:40:53.175Z,27.30
2018-09-18T17:43:21.324Z,27.20
2018-09-18T17:45:49.191Z,27.20
2018-09-18T17:48:17.224Z,27.10
2018-09-18T17:50:45.184Z,27.00
2018-09-18T17:53:13.340Z,27.00
2018-09-18T17:55:41.395Z,26.90
2018-09-18T17:58:09.392Z,26.90
2018-09-18T18:00:37.445Z,26.80
2018-09-18T18:03:05.609Z,26.70
2018-09-18T18:05:33.726Z,26.60
2018-09-18T18:08:01.709Z,26.60
2018-09-18T18:10:29.739Z,26.50
2018-09-18T18:12:57.814Z,26.40
2018-09-18T18:15:25.883Z,26.20
2018-09-18T18:17:53.958Z,26.20
2018-09-18T18:20:22.035Z,26.00
2018-09-18T18:22:50.610Z,25.90
2018-09-18T18:25:18.695Z,25.80
2018-09-18T18:27:46.668Z,25.80
2018-09-18T18:30:14.600Z,25.70
2018-09-18T18:32:42.599Z,25.60
2018-09-18T18:35:10.806Z,25.60
2018-09-18T18:37:38.842Z,25.50
2018-09-18T18:40:06.959Z,25.40
2018-09-18T18:42:35.510Z,25.30
2018-09-18T18:45:03.668Z,25.20
2018-09-18T18:47:31.867Z,25.10
2018-09-18T18:50:00.318Z,24.90
2018-09-18T18:52:28.492Z,24.80
2018-09-18T18:54:56.540Z,24.80
2018-09-18T18:57:24.592Z,24.60
2018-09-18T18:59:52.918Z,24.60
2018-09-18T19:02:21.080Z,24.40
2018-09-18T19:04:49.210Z,24.30
2018-09-18T19:07:17.404Z,24.10
2018-09-18T19:09:45.533Z,24.00
2018-09-18T19:12:13.767Z,23.80
2018-09-18T19:14:41.874Z,23.70
2018-09-18T19:17:10.091Z,23.60
2018-09-18T19:19:38.500Z,23.50
2018-09-18T19:22:06.444Z,23.20
2018-09-18T19:24:34.413Z,23.10
2018-09-18T19:27:02.503Z,23.00
2018-09-18T19:29:30.830Z,22.90
2018-09-18T19:31:58.856Z,22.80
2018-09-18T19:34:27.040Z,22.70
2018-09-18T19:36:55.188Z,22.50
2018-09-18T19:39:23.307Z,22.40
2018-09-18T19:41:51.628Z,22.30
2018-09-18T19:44:19.747Z,22.30
2018-09-18T19:46:47.969Z,22.40
2018-09-18T19:49:16.210Z,22.40
2018-09-18T19:51:44.730Z,22.50
2018-09-18T19:54:12.926Z,22.50
2018-09-18T19:56:41.100Z,22.60
2018-09-18T19:59:09.059Z,22.60
2018-09-18T20:01:37.077Z,22.50
2018-09-18T20:04:05.014Z,22.40
2018-09-18T20:06:33.132Z,22.30
2018-09-18T20:09:01.029Z,22.20
2018-09-18T20:11:29.239Z,22.20
2018-09-18T20:13:57.154Z,22.10
2018-09-18T20:16:25.184Z,22.10
2018-09-18T20:18:53.146Z,22.10
2018-09-18T20:21:21.089Z,22.00
2018-09-18T20:23:48.968Z,21.80
2018-09-18T20:26:17.116Z,21.70
2018-09-18T20:28:45.067Z,21.50
2018-09-18T20:31:12.938Z,21.30
2018-09-18T20:33:41.026Z,21.10
2018-09-18T20:36:09.166Z,20.90
2018-09-18T20:38:37.189Z,20.80
2018-09-18T20:41:05.006Z,20.70
2018-09-18T20:43:33.109Z,20.70
2018-09-18T20:46:00.999Z,20.80
2018-09-18T20:48:29.200Z,20.70
2018-09-18T20:50:57.068Z,20.80
2018-09-18T20:53:24.969Z,20.60
2018-09-18T20:55:53.064Z,20.50
2018-09-18T20:58:20.884Z,20.30
2018-09-18T21:00:48.708Z,20.20
2018-09-18T21:03:16.859Z,20.00
2018-09-18T21:05:44.752Z,19.90
2018-09-18T21:08:12.678Z,19.80
2018-09-18T21:10:40.521Z,19.70
2018-09-18T21:13:08.350Z,19.60
2018-09-18T21:15:36.243Z,19.40
2018-09-18T21:18:04.183Z,19.50
2018-09-18T21:20:32.698Z,19.40
2018-09-18T21:23:00.512Z,19.40
2018-09-18T21:25:32.891Z,19.40
2018-09-18T21:28:00.738Z,19.30
2018-09-18T21:30:28.737Z,19.40
2018-09-18T21:32:56.809Z,19.30
2018-09-18T21:35:24.861Z,19.20
2018-09-18T21:37:52.660Z,19.20
2018-09-18T21:40:20.597Z,19.30
2018-09-18T21:42:48.457Z,19.30
2018-09-18T21:45:16.369Z,19.20
2018-09-18T21:47:44.317Z,19.30
2018-09-18T21:50:12.328Z,19.10
2018-09-18T21:52:40.218Z,19.00
2018-09-18T21:55:08.038Z,18.80
2018-09-18T21:57:36.094Z,18.70
2018-09-18T22:00:03.974Z,18.50
2018-09-18T22:02:32.159Z,18.60
2018-09-18T22:05:00.212Z,18.60
2018-09-18T22:07:28.127Z,18.60
2018-09-18T22:09:55.994Z,18.60
2018-09-18T22:12:24.052Z,18.60
2018-09-18T22:14:51.932Z,18.60
2018-09-18T22:17:19.938Z,18.60
2018-09-18T22:19:47.786Z,18.40
2018-09-18T22:22:15.620Z,18.40
2018-09-18T22:24:43.356Z,18.50
2018-09-18T22:27:11.268Z,18.30
2018-09-18T22:29:39.017Z,18.30
2018-09-18T22:32:07.065Z,18.30
2018-09-18T22:34:34.960Z,18.20
2018-09-18T22:37:02.770Z,18.00
2018-09-18T22:39:30.665Z,18.00
2018-09-18T22:41:58.460Z,18.00
2018-09-18T22:44:26.225Z,17.90
2018-09-18T22:46:54.212Z,17.90
2018-09-18T22:49:22.179Z,17.70
2018-09-18T22:51:49.976Z,17.70
2018-09-18T22:54:17.705Z,17.80
2018-09-18T22:56:45.617Z,17.70
2018-09-18T22:59:13.403Z,17.60
2018-09-18T23:01:41.433Z,17.60
2018-09-18T23:04:09.317Z,17.60
2018-09-18T23:06:37.248Z,17.50
2018-09-18T23:09:06.113Z,17.50
2018-09-18T23:11:33.967Z,17.50
2018-09-18T23:14:01.771Z,17.40
2018-09-18T23:16:29.513Z,17.40
2018-09-18T23:18:57.478Z,17.30
2018-09-18T23:21:25.141Z,17.30
2018-09-18T23:23:52.997Z,17.30
2018-09-18T23:26:21.399Z,17.30
2018-09-18T23:28:49.190Z,17.30
2018-09-18T23:31:17.223Z,17.20
2018-09-18T23:33:45.025Z,17.20
2018-09-18T23:36:12.780Z,17.20
2018-09-18T23:38:40.555Z,17.00
2018-09-18T23:41:08.298Z,17.00
2018-09-18T23:43:36.076Z,16.90
2018-09-18T23:46:04.090Z,16.80
2018-09-18T23:48:32.012Z,16.70
2018-09-18T23:50:59.821Z,16.60
2018-09-18T23:53:27.592Z,16.50
2018-09-18T23:55:55.555Z,16.40
2018-09-18T23:58:23.453Z,16.30
